sensor_id;sensor_type;location;lat;lon;timestamp;P1;durP1;ratioP1;P2;durP2;ratioP2
41623;SDS011;27319;50.306;18.926;2023-04-28T00:01:23;53.53;;;27.83;;
41623;SDS011;27319;50.306;18.926;2023-04-28T00:04:23;49.80;;;25.92;;
41623;SDS011;27319;50.306;18.926;2023-04-28T00:07:25;46.95;;;26.55;;
41623;SDS011;27319;50.306;18.926;2023-04-28T00:11:25;48.50;;;26.10;;
41623;SDS011;27319;50.306;18.926;2023-04-28T00:15:26;49.38;;;27.42;;
41623;SDS011;27319;50.306;18.926;2023-04-28T00:19:27;44.55;;;23.88;;
41623;SDS011;27319;50.306;18.926;2023-04-28T00:23:28;47.83;;;24.98;;
41623;SDS011;27319;50.306;18.926;2023-04-28T00:27:29;49.65;;;25.75;;
41623;SDS011;27319;50.306;18.926;2023-04-28T00:31:29;51.17;;;24.90;;
41623;SDS011;27319;50.306;18.926;2023-04-28T00:35:30;46.63;;;24.25;;
41623;SDS011;27319;50.306;18.926;2023-04-28T00:39:31;48.00;;;25.20;;
41623;SDS011;27319;50.306;18.926;2023-04-28T00:43:47;51.38;;;24.42;;
41623;SDS011;27319;50.306;18.926;2023-04-28T00:47:45;45.45;;;25.02;;
41623;SDS011;27319;50.306;18.926;2023-04-28T00:51:45;40.13;;;22.70;;
41623;SDS011;27319;50.306;18.926;2023-04-28T00:55:46;48.08;;;24.05;;
41623;SDS011;27319;50.306;18.926;2023-04-28T00:58:48;47.80;;;26.08;;
41623;SDS011;27319;50.306;18.926;2023-04-28T01:02:49;49.15;;;24.88;;
41623;SDS011;27319;50.306;18.926;2023-04-28T01:05:51;50.47;;;25.50;;
41623;SDS011;27319;50.306;18.926;2023-04-28T01:09:52;43.00;;;22.50;;
41623;SDS011;27319;50.306;18.926;2023-04-28T01:13:28;38.80;;;22.90;;
41623;SDS011;27319;50.306;18.926;2023-04-28T01:17:29;39.97;;;22.73;;
41623;SDS011;27319;50.306;18.926;2023-04-28T01:20:53;41.30;;;20.08;;
41623;SDS011;27319;50.306;18.926;2023-04-28T01:24:54;40.00;;;20.83;;
41623;SDS011;27319;50.306;18.926;2023-04-28T01:28:54;37.70;;;20.75;;
41623;SDS011;27319;50.306;18.926;2023-04-28T01:32:55;38.88;;;20.73;;
41623;SDS011;27319;50.306;18.926;2023-04-28T01:36:56;38.80;;;19.65;;
41623;SDS011;27319;50.306;18.926;2023-04-28T01:40:57;38.08;;;20.27;;
41623;SDS011;27319;50.306;18.926;2023-04-28T01:44:57;50.05;;;19.83;;
41623;SDS011;27319;50.306;18.926;2023-04-28T01:48:58;79.07;;;23.90;;
41623;SDS011;27319;50.306;18.926;2023-04-28T01:52:59;66.95;;;23.05;;
41623;SDS011;27319;50.306;18.926;2023-04-28T01:57:00;49.35;;;20.13;;
41623;SDS011;27319;50.306;18.926;2023-04-28T02:01:00;45.53;;;21.05;;
41623;SDS011;27319;50.306;18.926;2023-04-28T02:05:01;45.78;;;20.38;;
41623;SDS011;27319;50.306;18.926;2023-04-28T02:09:02;38.78;;;22.27;;
41623;SDS011;27319;50.306;18.926;2023-04-28T02:13:02;41.78;;;21.77;;
41623;SDS011;27319;50.306;18.926;2023-04-28T02:17:03;55.75;;;23.88;;
41623;SDS011;27319;50.306;18.926;2023-04-28T02:21:07;42.00;;;22.20;;
41623;SDS011;27319;50.306;18.926;2023-04-28T02:25:07;42.80;;;23.38;;
41623;SDS011;27319;50.306;18.926;2023-04-28T02:29:08;42.88;;;24.20;;
41623;SDS011;27319;50.306;18.926;2023-04-28T02:33:09;50.30;;;24.98;;
41623;SDS011;27319;50.306;18.926;2023-04-28T02:37:10;45.95;;;23.05;;
41623;SDS011;27319;50.306;18.926;2023-04-28T02:41:11;42.13;;;22.08;;
41623;SDS011;27319;50.306;18.926;2023-04-28T02:45:11;42.00;;;23.77;;
41623;SDS011;27319;50.306;18.926;2023-04-28T02:49:12;51.53;;;26.45;;
41623;SDS011;27319;50.306;18.926;2023-04-28T02:53:13;41.78;;;24.38;;
41623;SDS011;27319;50.306;18.926;2023-04-28T02:57:14;45.60;;;24.10;;
41623;SDS011;27319;50.306;18.926;2023-04-28T03:01:14;47.08;;;24.88;;
41623;SDS011;27319;50.306;18.926;2023-04-28T03:05:10;46.65;;;24.20;;
41623;SDS011;27319;50.306;18.926;2023-04-28T03:09:11;54.20;;;26.35;;
41623;SDS011;27319;50.306;18.926;2023-04-28T03:13:12;54.78;;;30.15;;
41623;SDS011;27319;50.306;18.926;2023-04-28T03:17:13;60.00;;;30.48;;
41623;SDS011;27319;50.306;18.926;2023-04-28T03:20:56;54.90;;;30.20;;
41623;SDS011;27319;50.306;18.926;2023-04-28T03:24:57;59.55;;;31.77;;
41623;SDS011;27319;50.306;18.926;2023-04-28T03:28:57;58.80;;;31.33;;
41623;SDS011;27319;50.306;18.926;2023-04-28T03:32:58;58.72;;;33.13;;
41623;SDS011;27319;50.306;18.926;2023-04-28T03:36:59;55.40;;;30.42;;
41623;SDS011;27319;50.306;18.926;2023-04-28T03:41:00;59.25;;;32.67;;
41623;SDS011;27319;50.306;18.926;2023-04-28T03:45:00;64.13;;;33.95;;
41623;SDS011;27319;50.306;18.926;2023-04-28T03:49:01;63.35;;;36.03;;
41623;SDS011;27319;50.306;18.926;2023-04-28T03:53:02;61.25;;;35.33;;
41623;SDS011;27319;50.306;18.926;2023-04-28T03:57:03;63.35;;;34.55;;
41623;SDS011;27319;50.306;18.926;2023-04-28T04:01:03;68.35;;;37.08;;
41623;SDS011;27319;50.306;18.926;2023-04-28T04:05:04;62.35;;;34.45;;
41623;SDS011;27319;50.306;18.926;2023-04-28T04:09:05;66.28;;;35.10;;
41623;SDS011;27319;50.306;18.926;2023-04-28T04:13:06;58.28;;;33.00;;
41623;SDS011;27319;50.306;18.926;2023-04-28T04:17:07;64.57;;;34.90;;
41623;SDS011;27319;50.306;18.926;2023-04-28T04:21:07;61.53;;;33.83;;
41623;SDS011;27319;50.306;18.926;2023-04-28T04:25:08;60.03;;;34.75;;
41623;SDS011;27319;50.306;18.926;2023-04-28T04:29:09;58.97;;;34.83;;
41623;SDS011;27319;50.306;18.926;2023-04-28T04:33:10;66.97;;;35.03;;
41623;SDS011;27319;50.306;18.926;2023-04-28T04:36:51;63.78;;;36.17;;
41623;SDS011;27319;50.306;18.926;2023-04-28T04:40:52;55.17;;;32.65;;
41623;SDS011;27319;50.306;18.926;2023-04-28T04:44:52;55.92;;;32.70;;
41623;SDS011;27319;50.306;18.926;2023-04-28T04:48:53;55.42;;;30.85;;
41623;SDS011;27319;50.306;18.926;2023-04-28T04:52:54;55.08;;;31.90;;
41623;SDS011;27319;50.306;18.926;2023-04-28T04:56:55;51.58;;;30.02;;
41623;SDS011;27319;50.306;18.926;2023-04-28T05:00:55;54.90;;;32.20;;
41623;SDS011;27319;50.306;18.926;2023-04-28T05:03:56;55.17;;;31.83;;
41623;SDS011;27319;50.306;18.926;2023-04-28T05:07:57;49.25;;;28.40;;
41623;SDS011;27319;50.306;18.926;2023-04-28T05:11:58;46.83;;;28.10;;
41623;SDS011;27319;50.306;18.926;2023-04-28T05:14:58;52.90;;;28.70;;
41623;SDS011;27319;50.306;18.926;2023-04-28T05:18:59;50.85;;;26.42;;
41623;SDS011;27319;50.306;18.926;2023-04-28T05:23:00;42.63;;;24.92;;
41623;SDS011;27319;50.306;18.926;2023-04-28T05:27:01;45.08;;;23.52;;
41623;SDS011;27319;50.306;18.926;2023-04-28T05:31:02;39.20;;;24.08;;
41623;SDS011;27319;50.306;18.926;2023-04-28T05:35:02;38.05;;;21.33;;
41623;SDS011;27319;50.306;18.926;2023-04-28T05:39:03;40.72;;;21.98;;
41623;SDS011;27319;50.306;18.926;2023-04-28T05:43:04;43.50;;;21.35;;
41623;SDS011;27319;50.306;18.926;2023-04-28T05:47:05;40.75;;;21.33;;
41623;SDS011;27319;50.306;18.926;2023-04-28T05:51:05;28.77;;;18.13;;
41623;SDS011;27319;50.306;18.926;2023-04-28T05:55:06;35.55;;;18.23;;
41623;SDS011;27319;50.306;18.926;2023-04-28T05:59:07;38.65;;;18.27;;
41623;SDS011;27319;50.306;18.926;2023-04-28T06:03:08;33.92;;;17.35;;
41623;SDS011;27319;50.306;18.926;2023-04-28T06:07:09;32.63;;;16.77;;
41623;SDS011;27319;50.306;18.926;2023-04-28T06:11:09;30.83;;;16.77;;
41623;SDS011;27319;50.306;18.926;2023-04-28T06:15:10;32.88;;;16.15;;
41623;SDS011;27319;50.306;18.926;2023-04-28T06:19:11;29.90;;;14.63;;
41623;SDS011;27319;50.306;18.926;2023-04-28T06:22:56;32.08;;;15.50;;
41623;SDS011;27319;50.306;18.926;2023-04-28T06:26:56;28.35;;;13.55;;
41623;SDS011;27319;50.306;18.926;2023-04-28T06:30:57;26.50;;;13.55;;
41623;SDS011;27319;50.306;18.926;2023-04-28T06:34:57;22.23;;;13.15;;
41623;SDS011;27319;50.306;18.926;2023-04-28T06:38:58;22.73;;;13.10;;
41623;SDS011;27319;50.306;18.926;2023-04-28T06:42:59;21.90;;;12.80;;
41623;SDS011;27319;50.306;18.926;2023-04-28T06:47:00;27.00;;;10.93;;
41623;SDS011;27319;50.306;18.926;2023-04-28T06:51:00;26.05;;;10.50;;
41623;SDS011;27319;50.306;18.926;2023-04-28T06:55:01;27.75;;;9.15;;
41623;SDS011;27319;50.306;18.926;2023-04-28T06:59:02;31.27;;;8.70;;
41623;SDS011;27319;50.306;18.926;2023-04-28T07:03:03;21.10;;;8.73;;
41623;SDS011;27319;50.306;18.926;2023-04-28T07:06:04;19.95;;;8.77;;
41623;SDS011;27319;50.306;18.926;2023-04-28T07:10:05;22.85;;;9.43;;
41623;SDS011;27319;50.306;18.926;2023-04-28T07:14:05;18.35;;;8.05;;
41623;SDS011;27319;50.306;18.926;2023-04-28T07:18:06;25.10;;;8.32;;
41623;SDS011;27319;50.306;18.926;2023-04-28T07:22:07;10.63;;;6.90;;
41623;SDS011;27319;50.306;18.926;2023-04-28T07:25:08;15.73;;;8.23;;
41623;SDS011;27319;50.306;18.926;2023-04-28T07:29:08;21.08;;;7.95;;
41623;SDS011;27319;50.306;18.926;2023-04-28T07:33:09;17.08;;;7.60;;
41623;SDS011;27319;50.306;18.926;2023-04-28T07:37:10;13.95;;;6.72;;
41623;SDS011;27319;50.306;18.926;2023-04-28T07:41:11;19.45;;;7.30;;
41623;SDS011;27319;50.306;18.926;2023-04-28T07:45:11;16.13;;;7.07;;
41623;SDS011;27319;50.306;18.926;2023-04-28T07:49:12;18.77;;;5.47;;
41623;SDS011;27319;50.306;18.926;2023-04-28T07:52:13;12.68;;;5.72;;
41623;SDS011;27319;50.306;18.926;2023-04-28T07:56:14;14.38;;;5.57;;
41623;SDS011;27319;50.306;18.926;2023-04-28T08:00:14;15.95;;;5.80;;
41623;SDS011;27319;50.306;18.926;2023-04-28T08:04:15;10.95;;;7.70;;
41623;SDS011;27319;50.306;18.926;2023-04-28T08:07:16;14.82;;;6.50;;
41623;SDS011;27319;50.306;18.926;2023-04-28T08:11:17;10.43;;;5.22;;
41623;SDS011;27319;50.306;18.926;2023-04-28T08:15:18;9.80;;;4.95;;
41623;SDS011;27319;50.306;18.926;2023-04-28T08:19:18;8.73;;;4.20;;
41623;SDS011;27319;50.306;18.926;2023-04-28T08:22:19;8.50;;;4.07;;
41623;SDS011;27319;50.306;18.926;2023-04-28T08:26:20;7.63;;;3.95;;
41623;SDS011;27319;50.306;18.926;2023-04-28T08:30:21;14.65;;;4.82;;
41623;SDS011;27319;50.306;18.926;2023-04-28T08:34:22;11.63;;;4.82;;
41623;SDS011;27319;50.306;18.926;2023-04-28T08:38:22;9.23;;;4.70;;
41623;SDS011;27319;50.306;18.926;2023-04-28T08:42:23;11.35;;;4.75;;
41623;SDS011;27319;50.306;18.926;2023-04-28T08:46:24;10.68;;;5.28;;
41623;SDS011;27319;50.306;18.926;2023-04-28T08:50:25;9.93;;;4.65;;
41623;SDS011;27319;50.306;18.926;2023-04-28T08:54:30;9.32;;;4.38;;
41623;SDS011;27319;50.306;18.926;2023-04-28T08:58:26;10.70;;;4.70;;
41623;SDS011;27319;50.306;18.926;2023-04-28T09:02:27;16.30;;;6.15;;
41623;SDS011;27319;50.306;18.926;2023-04-28T09:06:34;13.30;;;4.57;;
41623;SDS011;27319;50.306;18.926;2023-04-28T09:10:35;12.32;;;5.38;;
41623;SDS011;27319;50.306;18.926;2023-04-28T09:14:41;10.27;;;5.72;;
41623;SDS011;27319;50.306;18.926;2023-04-28T09:18:54;12.57;;;5.45;;
41623;SDS011;27319;50.306;18.926;2023-04-28T09:22:43;29.58;;;5.95;;
41623;SDS011;27319;50.306;18.926;2023-04-28T09:26:55;16.77;;;6.15;;
41623;SDS011;27319;50.306;18.926;2023-04-28T09:30:56;11.55;;;6.50;;
41623;SDS011;27319;50.306;18.926;2023-04-28T09:35:02;12.77;;;5.72;;
41623;SDS011;27319;50.306;18.926;2023-04-28T09:39:06;13.25;;;6.00;;
41623;SDS011;27319;50.306;18.926;2023-04-28T09:43:23;11.52;;;6.20;;
41623;SDS011;27319;50.306;18.926;2023-04-28T09:47:23;14.05;;;6.22;;
41623;SDS011;27319;50.306;18.926;2023-04-28T09:51:25;12.30;;;5.72;;
41623;SDS011;27319;50.306;18.926;2023-04-28T09:55:25;15.30;;;5.88;;
41623;SDS011;27319;50.306;18.926;2023-04-28T09:59:26;11.35;;;5.35;;
41623;SDS011;27319;50.306;18.926;2023-04-28T10:03:28;12.82;;;6.18;;
41623;SDS011;27319;50.306;18.926;2023-04-28T10:07:28;11.50;;;5.40;;
41623;SDS011;27319;50.306;18.926;2023-04-28T10:11:28;10.65;;;4.60;;
41623;SDS011;27319;50.306;18.926;2023-04-28T10:15:30;7.88;;;4.72;;
41623;SDS011;27319;50.306;18.926;2023-04-28T10:19:30;11.13;;;4.80;;
41623;SDS011;27319;50.306;18.926;2023-04-28T10:27:16;14.25;;;5.47;;
41623;SDS011;27319;50.306;18.926;2023-04-28T10:31:23;7.80;;;4.72;;
41623;SDS011;27319;50.306;18.926;2023-04-28T10:39:07;9.65;;;4.07;;
41623;SDS011;27319;50.306;18.926;2023-04-28T10:43:09;16.35;;;4.22;;
41623;SDS011;27319;50.306;18.926;2023-04-28T10:50:05;9.18;;;4.15;;
41623;SDS011;27319;50.306;18.926;2023-04-28T10:54:07;7.97;;;3.95;;
41623;SDS011;27319;50.306;18.926;2023-04-28T11:01:35;5.97;;;3.78;;
41623;SDS011;27319;50.306;18.926;2023-04-28T11:05:16;8.75;;;4.13;;
41623;SDS011;27319;50.306;18.926;2023-04-28T11:12:45;9.73;;;4.80;;
41623;SDS011;27319;50.306;18.926;2023-04-28T11:16:47;9.57;;;4.47;;
41623;SDS011;27319;50.306;18.926;2023-04-28T11:20:19;9.77;;;4.43;;
41623;SDS011;27319;50.306;18.926;2023-04-28T11:24:20;8.48;;;3.50;;
41623;SDS011;27319;50.306;18.926;2023-04-28T11:28:21;11.73;;;3.88;;
41623;SDS011;27319;50.306;18.926;2023-04-28T11:32:31;8.38;;;4.38;;
41623;SDS011;27319;50.306;18.926;2023-04-28T11:36:32;8.75;;;3.40;;
41623;SDS011;27319;50.306;18.926;2023-04-28T11:39:34;10.57;;;3.88;;
41623;SDS011;27319;50.306;18.926;2023-04-28T11:43:35;8.25;;;4.13;;
41623;SDS011;27319;50.306;18.926;2023-04-28T11:47:36;7.75;;;3.72;;
41623;SDS011;27319;50.306;18.926;2023-04-28T11:51:37;14.60;;;4.18;;
41623;SDS011;27319;50.306;18.926;2023-04-28T11:55:37;6.90;;;3.85;;
41623;SDS011;27319;50.306;18.926;2023-04-28T11:59:13;12.38;;;4.28;;
41623;SDS011;27319;50.306;18.926;2023-04-28T12:03:13;10.02;;;4.28;;
41623;SDS011;27319;50.306;18.926;2023-04-28T12:06:17;5.15;;;3.53;;
41623;SDS011;27319;50.306;18.926;2023-04-28T12:10:18;8.90;;;3.85;;
41623;SDS011;27319;50.306;18.926;2023-04-28T12:14:18;6.10;;;3.10;;
41623;SDS011;27319;50.306;18.926;2023-04-28T12:22:17;4.28;;;3.03;;
41623;SDS011;27319;50.306;18.926;2023-04-28T12:26:24;20.30;;;4.28;;
41623;SDS011;27319;50.306;18.926;2023-04-28T12:30:28;10.13;;;3.60;;
41623;SDS011;27319;50.306;18.926;2023-04-28T12:34:25;8.02;;;3.45;;
41623;SDS011;27319;50.306;18.926;2023-04-28T12:38:26;14.18;;;3.63;;
41623;SDS011;27319;50.306;18.926;2023-04-28T12:42:27;5.70;;;2.88;;
41623;SDS011;27319;50.306;18.926;2023-04-28T12:46:27;8.73;;;3.15;;
41623;SDS011;27319;50.306;18.926;2023-04-28T12:50:28;7.35;;;3.25;;
41623;SDS011;27319;50.306;18.926;2023-04-28T12:54:29;8.20;;;2.88;;
41623;SDS011;27319;50.306;18.926;2023-04-28T12:58:30;14.60;;;3.53;;
41623;SDS011;27319;50.306;18.926;2023-04-28T13:02:30;11.85;;;3.85;;
41623;SDS011;27319;50.306;18.926;2023-04-28T13:05:31;12.68;;;3.47;;
41623;SDS011;27319;50.306;18.926;2023-04-28T13:09:31;17.33;;;3.63;;
41623;SDS011;27319;50.306;18.926;2023-04-28T13:13:32;6.03;;;2.92;;
41623;SDS011;27319;50.306;18.926;2023-04-28T13:17:33;5.80;;;3.13;;
41623;SDS011;27319;50.306;18.926;2023-04-28T13:21:34;6.53;;;2.80;;
41623;SDS011;27319;50.306;18.926;2023-04-28T13:25:34;7.43;;;3.50;;
41623;SDS011;27319;50.306;18.926;2023-04-28T13:28:59;7.35;;;3.47;;
41623;SDS011;27319;50.306;18.926;2023-04-28T13:32:04;6.30;;;3.08;;
41623;SDS011;27319;50.306;18.926;2023-04-28T13:35:45;9.05;;;3.28;;
41623;SDS011;27319;50.306;18.926;2023-04-28T13:39:46;22.02;;;3.80;;
41623;SDS011;27319;50.306;18.926;2023-04-28T13:43:47;10.82;;;3.35;;
41623;SDS011;27319;50.306;18.926;2023-04-28T13:47:43;9.35;;;3.30;;
41623;SDS011;27319;50.306;18.926;2023-04-28T13:51:44;7.40;;;2.88;;
41623;SDS011;27319;50.306;18.926;2023-04-28T13:55:45;13.18;;;4.05;;
41623;SDS011;27319;50.306;18.926;2023-04-28T13:59:45;6.82;;;3.22;;
41623;SDS011;27319;50.306;18.926;2023-04-28T14:03:46;7.00;;;2.88;;
41623;SDS011;27319;50.306;18.926;2023-04-28T14:07:47;10.50;;;3.75;;
41623;SDS011;27319;50.306;18.926;2023-04-28T14:11:48;7.75;;;3.25;;
41623;SDS011;27319;50.306;18.926;2023-04-28T14:15:52;9.43;;;2.95;;
41623;SDS011;27319;50.306;18.926;2023-04-28T14:19:52;6.70;;;3.28;;
41623;SDS011;27319;50.306;18.926;2023-04-28T14:23:53;10.90;;;3.97;;
41623;SDS011;27319;50.306;18.926;2023-04-28T14:27:54;8.60;;;3.83;;
41623;SDS011;27319;50.306;18.926;2023-04-28T14:31:55;10.80;;;3.28;;
41623;SDS011;27319;50.306;18.926;2023-04-28T14:35:55;9.65;;;3.42;;
41623;SDS011;27319;50.306;18.926;2023-04-28T14:39:56;9.68;;;3.78;;
41623;SDS011;27319;50.306;18.926;2023-04-28T14:43:57;9.65;;;3.17;;
41623;SDS011;27319;50.306;18.926;2023-04-28T14:47:58;30.80;;;8.60;;
41623;SDS011;27319;50.306;18.926;2023-04-28T14:51:58;9.43;;;4.25;;
41623;SDS011;27319;50.306;18.926;2023-04-28T14:55:59;9.00;;;4.30;;
41623;SDS011;27319;50.306;18.926;2023-04-28T14:59:00;9.68;;;3.65;;
41623;SDS011;27319;50.306;18.926;2023-04-28T15:03:01;12.02;;;4.00;;
41623;SDS011;27319;50.306;18.926;2023-04-28T15:07:01;6.90;;;3.20;;
41623;SDS011;27319;50.306;18.926;2023-04-28T15:11:02;11.77;;;3.30;;
41623;SDS011;27319;50.306;18.926;2023-04-28T15:15:03;7.32;;;3.05;;
41623;SDS011;27319;50.306;18.926;2023-04-28T15:19:04;9.73;;;2.78;;
41623;SDS011;27319;50.306;18.926;2023-04-28T15:23:05;8.95;;;2.63;;
41623;SDS011;27319;50.306;18.926;2023-04-28T15:27:05;9.07;;;4.28;;
41623;SDS011;27319;50.306;18.926;2023-04-28T15:31:06;9.90;;;4.07;;
41623;SDS011;27319;50.306;18.926;2023-04-28T15:35:07;10.07;;;4.35;;
41623;SDS011;27319;50.306;18.926;2023-04-28T15:39:08;6.65;;;3.53;;
41623;SDS011;27319;50.306;18.926;2023-04-28T15:43:09;11.60;;;3.40;;
41623;SDS011;27319;50.306;18.926;2023-04-28T15:47:09;8.38;;;2.88;;
41623;SDS011;27319;50.306;18.926;2023-04-28T15:51:10;9.85;;;3.70;;
41623;SDS011;27319;50.306;18.926;2023-04-28T15:54:11;11.05;;;4.78;;
41623;SDS011;27319;50.306;18.926;2023-04-28T15:57:12;7.05;;;3.95;;
41623;SDS011;27319;50.306;18.926;2023-04-28T16:01:13;6.50;;;2.97;;
41623;SDS011;27319;50.306;18.926;2023-04-28T16:05:10;6.10;;;3.10;;
41623;SDS011;27319;50.306;18.926;2023-04-28T16:08:11;5.25;;;2.92;;
41623;SDS011;27319;50.306;18.926;2023-04-28T16:12:12;9.35;;;2.63;;
41623;SDS011;27319;50.306;18.926;2023-04-28T16:16:13;4.80;;;3.13;;
41623;SDS011;27319;50.306;18.926;2023-04-28T16:20:14;6.13;;;2.95;;
41623;SDS011;27319;50.306;18.926;2023-04-28T16:23:14;7.20;;;2.92;;
41623;SDS011;27319;50.306;18.926;2023-04-28T16:27:15;10.63;;;3.95;;
41623;SDS011;27319;50.306;18.926;2023-04-28T16:31:16;6.97;;;3.30;;
41623;SDS011;27319;50.306;18.926;2023-04-28T16:35:17;6.50;;;2.60;;
41623;SDS011;27319;50.306;18.926;2023-04-28T16:38:18;4.63;;;3.28;;
41623;SDS011;27319;50.306;18.926;2023-04-28T16:41:19;6.55;;;3.35;;
41623;SDS011;27319;50.306;18.926;2023-04-28T16:45:20;5.72;;;2.88;;
41623;SDS011;27319;50.306;18.926;2023-04-28T16:49:16;8.85;;;2.88;;
41623;SDS011;27319;50.306;18.926;2023-04-28T16:53:17;6.07;;;2.90;;
41623;SDS011;27319;50.306;18.926;2023-04-28T16:56:22;10.10;;;3.05;;
41623;SDS011;27319;50.306;18.926;2023-04-28T17:00:23;7.15;;;3.70;;
41623;SDS011;27319;50.306;18.926;2023-04-28T17:04:24;7.63;;;3.28;;
41623;SDS011;27319;50.306;18.926;2023-04-28T17:07:24;8.50;;;3.50;;
41623;SDS011;27319;50.306;18.926;2023-04-28T17:11:05;7.22;;;3.45;;
41623;SDS011;27319;50.306;18.926;2023-04-28T17:14:05;8.23;;;4.13;;
41623;SDS011;27319;50.306;18.926;2023-04-28T17:17:14;10.10;;;3.90;;
41623;SDS011;27319;50.306;18.926;2023-04-28T17:21:15;11.48;;;4.22;;
41623;SDS011;27319;50.306;18.926;2023-04-28T17:25:16;9.43;;;3.80;;
41623;SDS011;27319;50.306;18.926;2023-04-28T17:29:17;8.80;;;3.65;;
41623;SDS011;27319;50.306;18.926;2023-04-28T17:33:17;8.85;;;4.82;;
41623;SDS011;27319;50.306;18.926;2023-04-28T17:37:18;43.75;;;22.42;;
41623;SDS011;27319;50.306;18.926;2023-04-28T17:41:19;14.63;;;9.63;;
41623;SDS011;27319;50.306;18.926;2023-04-28T17:45:20;19.55;;;11.50;;
41623;SDS011;27319;50.306;18.926;2023-04-28T17:48:21;13.55;;;8.65;;
41623;SDS011;27319;50.306;18.926;2023-04-28T17:51:29;13.10;;;5.40;;
41623;SDS011;27319;50.306;18.926;2023-04-28T17:55:30;7.15;;;3.90;;
41623;SDS011;27319;50.306;18.926;2023-04-28T17:59:31;11.07;;;4.07;;
41623;SDS011;27319;50.306;18.926;2023-04-28T18:03:35;7.82;;;3.92;;
41623;SDS011;27319;50.306;18.926;2023-04-28T18:07:35;13.43;;;4.30;;
41623;SDS011;27319;50.306;18.926;2023-04-28T18:11:36;14.20;;;9.15;;
41623;SDS011;27319;50.306;18.926;2023-04-28T18:15:37;12.65;;;5.72;;
41623;SDS011;27319;50.306;18.926;2023-04-28T18:19:38;13.13;;;5.38;;
41623;SDS011;27319;50.306;18.926;2023-04-28T18:23:38;11.18;;;6.30;;
41623;SDS011;27319;50.306;18.926;2023-04-28T18:27:39;11.60;;;5.97;;
41623;SDS011;27319;50.306;18.926;2023-04-28T18:30:57;15.85;;;6.13;;
41623;SDS011;27319;50.306;18.926;2023-04-28T18:34:58;12.65;;;5.97;;
41623;SDS011;27319;50.306;18.926;2023-04-28T18:38:59;33.30;;;15.32;;
41623;SDS011;27319;50.306;18.926;2023-04-28T18:43:00;33.70;;;12.52;;
41623;SDS011;27319;50.306;18.926;2023-04-28T18:47:00;23.83;;;11.13;;
41623;SDS011;27319;50.306;18.926;2023-04-28T18:51:01;18.45;;;9.45;;
41623;SDS011;27319;50.306;18.926;2023-04-28T18:54:02;21.33;;;12.35;;
41623;SDS011;27319;50.306;18.926;2023-04-28T18:58:04;17.65;;;10.27;;
41623;SDS011;27319;50.306;18.926;2023-04-28T19:02:05;14.23;;;7.50;;
41623;SDS011;27319;50.306;18.926;2023-04-28T19:05:06;14.13;;;7.15;;
41623;SDS011;27319;50.306;18.926;2023-04-28T19:09:06;20.48;;;11.27;;
41623;SDS011;27319;50.306;18.926;2023-04-28T19:13:07;23.45;;;11.07;;
41623;SDS011;27319;50.306;18.926;2023-04-28T19:17:08;27.67;;;13.30;;
41623;SDS011;27319;50.306;18.926;2023-04-28T19:21:09;24.77;;;14.10;;
41623;SDS011;27319;50.306;18.926;2023-04-28T19:24:13;26.70;;;13.68;;
41623;SDS011;27319;50.306;18.926;2023-04-28T19:28:13;30.70;;;17.02;;
41623;SDS011;27319;50.306;18.926;2023-04-28T19:32:14;31.63;;;16.80;;
41623;SDS011;27319;50.306;18.926;2023-04-28T19:36:22;18.50;;;10.82;;
41623;SDS011;27319;50.306;18.926;2023-04-28T19:39:23;16.58;;;8.32;;
41623;SDS011;27319;50.306;18.926;2023-04-28T19:43:24;12.18;;;7.00;;
41623;SDS011;27319;50.306;18.926;2023-04-28T19:47:25;14.50;;;5.82;;
41623;SDS011;27319;50.306;18.926;2023-04-28T19:51:25;12.30;;;5.85;;
41623;SDS011;27319;50.306;18.926;2023-04-28T19:55:26;11.55;;;7.25;;
41623;SDS011;27319;50.306;18.926;2023-04-28T19:59:27;21.23;;;10.45;;
41623;SDS011;27319;50.306;18.926;2023-04-28T20:03:28;16.13;;;10.40;;
41623;SDS011;27319;50.306;18.926;2023-04-28T20:07:29;18.33;;;10.65;;
41623;SDS011;27319;50.306;18.926;2023-04-28T20:11:30;20.25;;;11.27;;
41623;SDS011;27319;50.306;18.926;2023-04-28T20:15:30;14.90;;;10.30;;
41623;SDS011;27319;50.306;18.926;2023-04-28T20:19:31;15.02;;;9.27;;
41623;SDS011;27319;50.306;18.926;2023-04-28T20:23:32;16.60;;;9.10;;
41623;SDS011;27319;50.306;18.926;2023-04-28T20:26:37;14.00;;;8.32;;
41623;SDS011;27319;50.306;18.926;2023-04-28T20:30:38;19.33;;;9.73;;
41623;SDS011;27319;50.306;18.926;2023-04-28T20:34:38;17.83;;;9.63;;
41623;SDS011;27319;50.306;18.926;2023-04-28T20:38:39;18.52;;;9.48;;
41623;SDS011;27319;50.306;18.926;2023-04-28T20:42:43;20.83;;;10.52;;
41623;SDS011;27319;50.306;18.926;2023-04-28T20:46:40;18.25;;;11.10;;
41623;SDS011;27319;50.306;18.926;2023-04-28T20:49:41;20.10;;;11.38;;
41623;SDS011;27319;50.306;18.926;2023-04-28T20:53:41;22.30;;;11.60;;
41623;SDS011;27319;50.306;18.926;2023-04-28T20:57:42;22.40;;;10.55;;
41623;SDS011;27319;50.306;18.926;2023-04-28T21:01:43;18.85;;;9.75;;
41623;SDS011;27319;50.306;18.926;2023-04-28T21:05:11;24.20;;;11.00;;
41623;SDS011;27319;50.306;18.926;2023-04-28T21:09:08;20.40;;;9.98;;
41623;SDS011;27319;50.306;18.926;2023-04-28T21:13:09;18.83;;;9.93;;
41623;SDS011;27319;50.306;18.926;2023-04-28T21:17:10;16.95;;;9.05;;
41623;SDS011;27319;50.306;18.926;2023-04-28T21:21:11;20.58;;;8.70;;
41623;SDS011;27319;50.306;18.926;2023-04-28T21:25:11;16.98;;;8.50;;
41623;SDS011;27319;50.306;18.926;2023-04-28T21:29:12;17.52;;;8.82;;
41623;SDS011;27319;50.306;18.926;2023-04-28T21:33:13;13.10;;;7.78;;
41623;SDS011;27319;50.306;18.926;2023-04-28T21:36:13;15.30;;;8.15;;
41623;SDS011;27319;50.306;18.926;2023-04-28T21:40:14;11.55;;;7.13;;
41623;SDS011;27319;50.306;18.926;2023-04-28T21:44:15;19.77;;;7.43;;
41623;SDS011;27319;50.306;18.926;2023-04-28T21:48:16;11.80;;;6.63;;
41623;SDS011;27319;50.306;18.926;2023-04-28T21:52:17;12.77;;;7.45;;
41623;SDS011;27319;50.306;18.926;2023-04-28T21:55:38;16.17;;;7.70;;
41623;SDS011;27319;50.306;18.926;2023-04-28T21:59:39;13.77;;;6.50;;
41623;SDS011;27319;50.306;18.926;2023-04-28T22:03:40;15.02;;;8.48;;
41623;SDS011;27319;50.306;18.926;2023-04-28T22:07:40;19.38;;;7.43;;
41623;SDS011;27319;50.306;18.926;2023-04-28T22:11:17;16.05;;;8.48;;
41623;SDS011;27319;50.306;18.926;2023-04-28T22:15:17;18.85;;;8.45;;
41623;SDS011;27319;50.306;18.926;2023-04-28T22:19:18;13.82;;;7.88;;
41623;SDS011;27319;50.306;18.926;2023-04-28T22:23:19;12.32;;;7.80;;
41623;SDS011;27319;50.306;18.926;2023-04-28T22:27:20;14.25;;;7.82;;
41623;SDS011;27319;50.306;18.926;2023-04-28T22:30:20;12.65;;;8.27;;
41623;SDS011;27319;50.306;18.926;2023-04-28T22:34:21;19.98;;;8.73;;
41623;SDS011;27319;50.306;18.926;2023-04-28T22:38:22;16.23;;;9.75;;
41623;SDS011;27319;50.306;18.926;2023-04-28T22:42:23;23.17;;;9.70;;
41623;SDS011;27319;50.306;18.926;2023-04-28T22:46:24;17.73;;;8.75;;
41623;SDS011;27319;50.306;18.926;2023-04-28T22:50:24;13.05;;;8.38;;
41623;SDS011;27319;50.306;18.926;2023-04-28T22:54:25;15.75;;;7.97;;
41623;SDS011;27319;50.306;18.926;2023-04-28T22:58:26;12.88;;;7.85;;
41623;SDS011;27319;50.306;18.926;2023-04-28T23:02:27;12.15;;;7.90;;
41623;SDS011;27319;50.306;18.926;2023-04-28T23:05:27;18.27;;;9.07;;